Airfield :
LOGIN :

Register | Disclaimer

   EN    FR    IT 

 










Legend :    VFR   Marginal VFR   IFR   Intensive IFR   Very Intensive IFR
Visi :
Ceiling :
>= 8 km
>= 3000ft
5 to 8 km
1000 to 3000 ft
1500m to 5 km
500 to 1000 ft
800 to 1500m
200 to 500 ft
< 800m
< 200 ft
Symbols :   Thunderstorms  Fog  Heavy snow  Heavy precipitations  Wind > 20 kt
SIGMETs :     Misc.  Thunderstorms  Icing  Turbulence  Mountain Waves  Volcanic Ashes







- Airport Elevation : 220 ft
- IATA code : CWL
- Download approach charts


EGFF - Cardiff Rhoose

CURRENT METAR :
  • 270250Z AUTO 36007KT 9999 OVC048 02/M02 Q1021

EXPIRED METARs :
  • 270220Z AUTO 01005KT 9999 FEW049 02/M02 Q1021
  • 270150Z AUTO 01004KT 9999 NCD 02/M02 Q1021
  • 270120Z AUTO 01006KT 9999 NCD 02/M02 Q1022
  • 270050Z AUTO 02004KT 9999 NCD 02/M02 Q1022
  • 270020Z AUTO 02006KT 9999 NCD 02/M01 Q1022

TAF TAF EGFF
Valid from the 27 at 00:00 until the 28 at 00:00 UTC


262257Z 2700/2724 02006KT 9999 FEW045
BECMG 2706/2709 30012KT
PROB30
TEMPO 2714/2718 9000 -SHRA
ATIS : +44 1446 729 319
No reported NOTAMs for that airfield.



MET'MAP, your aeronautical weather chart ! - Copyright ORBIFLY December 2007 - Disclaimer

ORBIFLY MET'MAP TEAM :

Programming & Development : Alexandra Zaïnal
Concept & Development : Baudouin d'Aumeries
Co-Development & Prog : Marc-Olivier Méhu
Technical & hardware support : Manuel Goepfert

Contact : metmap@orbifly.com




SOURCES & CREDITS :

   NOAA